Time;durP1;ratioP1;P1;durP2;ratioP2;P2;SDS_P1;SDS_P2;PMS_P1;PMS_P2;Temp;Humidity;BMP_temperature;BMP_pressure;BME280_temperature;BME280_humidity;BME280_pressure;Samples;Min_cycle;Max_cycle;Signal;HPM_P1;HPM_P2
2022/02/24 00:01:52;;;;;;;10.65;3.05;;;10.20;62.90;;;;;;5050568;28;20066;-64
2022/02/24 00:04:18;;;;;;;7.95;2.88;;;10.20;62.90;;;;;;5050316;28;20553;-64
2022/02/24 00:06:43;;;;;;;10.00;3.15;;;10.20;63.00;;;;;;5049857;28;20155;-61
2022/02/24 00:09:09;;;;;;;12.43;3.58;;;10.20;63.20;;;;;;5050269;28;20029;-64
2022/02/24 00:11:35;;;;;;;9.25;3.08;;;10.20;63.30;;;;;;5032513;28;20017;-64
2022/02/24 00:14:01;;;;;;;6.60;3.00;;;10.20;63.60;;;;;;5050266;28;20029;-60
2022/02/24 00:16:27;;;;;;;9.57;3.10;;;10.20;64.00;;;;;;5032428;28;20029;-63
2022/02/24 00:18:53;;;;;;;11.38;3.28;;;10.20;64.10;;;;;;5032118;28;20398;-64
2022/02/24 00:21:19;;;;;;;10.88;2.85;;;10.20;64.20;;;;;;5065124;28;20423;-64
2022/02/24 00:23:45;;;;;;;11.02;3.15;;;10.10;64.30;;;;;;5050349;28;20033;-64
2022/02/24 00:26:11;;;;;;;11.65;3.60;;;10.20;64.00;;;;;;5049477;28;20032;-61
2022/02/24 00:28:37;;;;;;;11.50;2.90;;;10.10;63.30;;;;;;5065730;28;20080;-62
2022/02/24 00:31:03;;;;;;;10.27;2.47;;;10.10;63.30;;;;;;5050519;28;20033;-61
2022/02/24 00:33:29;;;;;;;13.23;3.13;;;10.10;63.10;;;;;;5056024;28;20407;-61
2022/02/24 00:35:55;;;;;;;9.55;2.97;;;10.00;62.90;;;;;;5069893;28;20090;-65
2022/02/24 00:38:21;;;;;;;11.02;3.17;;;10.00;62.80;;;;;;5070046;28;20427;-61
2022/02/24 00:40:47;;;;;;;8.45;2.55;;;10.00;62.40;;;;;;5084865;28;20021;-61
2022/02/24 00:43:13;;;;;;;7.05;2.80;;;10.00;62.70;;;;;;5085466;28;20540;-61
2022/02/24 00:45:39;;;;;;;9.43;2.80;;;10.00;62.80;;;;;;5069803;28;20063;-64
2022/02/24 00:48:07;;;;;;;9.63;2.85;;;10.00;62.90;;;;;;5069574;28;20020;-61
2022/02/24 00:50:32;;;;;;;10.10;2.90;;;9.90;63.00;;;;;;5069710;28;20048;-61
2022/02/24 00:52:58;;;;;;;9.90;2.97;;;9.90;63.10;;;;;;5069820;28;20500;-64
2022/02/24 00:55:25;;;;;;;10.43;3.28;;;9.90;63.30;;;;;;5069318;28;20421;-61
2022/02/24 00:57:52;;;;;;;8.40;3.05;;;9.90;63.50;;;;;;5069807;28;20028;-61
2022/02/24 01:00:18;;;;;;;11.77;3.70;;;9.90;63.60;;;;;;5069351;28;20024;-60
2022/02/24 01:02:44;;;;;;;12.63;3.65;;;9.90;63.80;;;;;;5069385;28;20116;-64
2022/02/24 01:05:10;;;;;;;8.98;3.35;;;9.90;64.00;;;;;;5069480;28;20024;-64
2022/02/24 01:07:36;;;;;;;12.52;3.38;;;9.80;64.10;;;;;;5038911;28;20033;-64
2022/02/24 01:10:03;;;;;;;15.30;3.78;;;9.90;64.20;;;;;;5047497;28;20547;-61
2022/02/24 01:12:28;;;;;;;11.85;3.40;;;9.90;64.30;;;;;;5037249;28;20569;-61
2022/02/24 01:14:54;;;;;;;12.23;3.40;;;9.90;64.50;;;;;;5057144;28;20029;-61
2022/02/24 01:17:20;;;;;;;10.65;3.42;;;9.90;64.50;;;;;;5047440;28;20036;-61
2022/02/24 01:19:46;;;;;;;9.65;3.08;;;9.90;64.60;;;;;;5047330;28;20028;-61
2022/02/24 01:22:11;;;;;;;7.68;2.90;;;9.90;64.70;;;;;;5063950;28;20167;-64
2022/02/24 01:24:37;;;;;;;11.95;3.70;;;9.90;64.80;;;;;;5067027;28;20025;-64
2022/02/24 01:27:03;;;;;;;11.88;3.75;;;9.90;64.70;;;;;;5057312;28;20052;-61
2022/02/24 01:29:29;;;;;;;8.85;3.53;;;9.90;64.80;;;;;;5047771;28;20029;-61
2022/02/24 01:31:55;;;;;;;8.30;3.15;;;9.90;65.00;;;;;;5048137;28;20164;-64
2022/02/24 01:34:20;;;;;;;9.35;3.00;;;9.90;65.10;;;;;;5054120;28;20060;-64
2022/02/24 01:36:47;;;;;;;12.57;4.80;;;9.90;65.20;;;;;;5050610;28;20024;-64
2022/02/24 01:39:13;;;;;;;12.15;3.80;;;9.90;65.50;;;;;;5068321;28;20087;-64
2022/02/24 01:41:38;;;;;;;15.55;4.47;;;9.90;65.70;;;;;;5069513;28;20037;-64
2022/02/24 01:44:09;;;;;;;9.57;3.72;;;9.90;66.00;;;;;;5084695;28;20429;-64
2022/02/24 01:46:36;;;;;;;11.50;3.90;;;9.80;66.00;;;;;;5051520;28;20479;-64
2022/02/24 01:49:05;;;;;;;10.73;3.85;;;9.80;66.20;;;;;;5068795;28;20016;-64
2022/02/24 01:51:33;;;;;;;10.73;4.10;;;9.80;66.40;;;;;;5069032;28;20047;-60
2022/02/24 01:53:59;;;;;;;15.02;4.50;;;9.80;66.50;;;;;;5068763;28;20840;-61
2022/02/24 01:56:25;;;;;;;11.65;4.07;;;9.80;66.50;;;;;;5034352;28;20012;-60
2022/02/24 01:58:50;;;;;;;14.18;4.20;;;9.80;66.40;;;;;;5068959;28;20024;-61
2022/02/24 02:01:16;;;;;;;16.40;4.20;;;9.70;66.20;;;;;;5050936;28;20517;-61
2022/02/24 02:03:42;;;;;;;12.20;3.88;;;9.70;66.30;;;;;;5068967;28;20029;-61
2022/02/24 02:06:08;;;;;;;12.43;4.95;;;9.70;66.10;;;;;;5069078;28;20036;-61
2022/02/24 02:08:34;;;;;;;12.18;4.22;;;9.60;65.90;;;;;;5068450;28;20478;-61
2022/02/24 02:11:00;;;;;;;13.30;4.22;;;9.60;65.90;;;;;;5050296;28;20042;-64
2022/02/24 02:13:26;;;;;;;11.15;4.10;;;9.60;66.10;;;;;;5050816;28;20025;-64
2022/02/24 02:15:52;;;;;;;10.48;3.80;;;9.60;66.10;;;;;;5068961;28;20040;-63
2022/02/24 02:18:19;;;;;;;13.00;4.53;;;9.60;66.00;;;;;;5068464;28;20033;-64
2022/02/24 02:20:45;;;;;;;12.30;3.90;;;9.60;66.00;;;;;;5068975;28;20075;-60
2022/02/24 02:23:12;;;;;;;11.85;3.97;;;9.60;66.00;;;;;;5068545;28;20060;-64
2022/02/24 02:25:38;;;;;;;10.57;3.70;;;9.60;66.60;;;;;;5068571;28;20025;-60
2022/02/24 02:28:04;;;;;;;13.05;3.95;;;9.60;66.10;;;;;;5068850;28;20467;-60
2022/02/24 02:30:30;;;;;;;10.90;3.47;;;9.60;66.20;;;;;;5054227;28;20107;-60
2022/02/24 02:32:57;;;;;;;11.35;4.05;;;9.60;66.30;;;;;;5072492;28;20056;-60
2022/02/24 02:35:23;;;;;;;12.85;4.53;;;9.60;66.50;;;;;;5072233;28;20086;-60
2022/02/24 02:37:50;;;;;;;16.15;4.57;;;9.60;66.50;;;;;;5071633;28;20390;-60
2022/02/24 02:40:16;;;;;;;9.98;3.63;;;9.60;66.50;;;;;;5071778;28;20069;-60
2022/02/24 02:42:42;;;;;;;10.48;3.80;;;9.60;66.40;;;;;;5087768;28;20071;-64
2022/02/24 02:45:09;;;;;;;11.13;3.83;;;9.60;66.40;;;;;;5072258;28;20048;-60
2022/02/24 02:47:35;;;;;;;14.05;3.78;;;9.60;66.20;;;;;;5072184;28;20020;-60
2022/02/24 02:50:02;;;;;;;9.75;3.10;;;9.60;66.20;;;;;;5071655;28;20139;-60
2022/02/24 02:52:28;;;;;;;11.00;3.33;;;9.60;66.20;;;;;;5071826;28;20044;-64
2022/02/24 02:55:09;;;;;;;13.55;3.65;;;9.60;66.80;;;;;;5071632;28;20386;-63
2022/02/24 02:57:35;;;;;;;10.95;3.58;;;9.60;66.10;;;;;;5068197;28;20407;-60
2022/02/24 03:00:05;;;;;;;13.55;3.28;;;9.60;66.10;;;;;;5076611;28;20025;-64
2022/02/24 03:02:31;;;;;;;13.32;4.25;;;9.60;66.00;;;;;;5070349;28;20475;-60
2022/02/24 03:04:57;;;;;;;12.82;3.58;;;9.50;65.70;;;;;;5053931;28;20112;-60
2022/02/24 03:07:22;;;;;;;9.45;3.28;;;9.50;65.50;;;;;;5071054;28;20105;-60
2022/02/24 03:09:49;;;;;;;14.18;3.05;;;9.50;65.50;;;;;;5061222;28;20036;-61
2022/02/24 03:12:14;;;;;;;9.27;3.08;;;9.50;65.40;;;;;;5063367;28;20625;-61
2022/02/24 03:14:40;;;;;;;9.85;3.08;;;9.50;65.40;;;;;;5070926;28;20163;-61
2022/02/24 03:17:07;;;;;;;9.52;3.10;;;9.50;65.30;;;;;;5070346;28;20028;-61
2022/02/24 03:19:32;;;;;;;13.23;3.15;;;9.50;65.40;;;;;;5063641;28;20044;-64
2022/02/24 03:21:58;;;;;;;10.07;2.70;;;9.50;65.30;;;;;;5050553;28;20049;-64
2022/02/24 03:24:24;;;;;;;11.63;3.13;;;9.50;65.10;;;;;;5063951;28;20051;-60
2022/02/24 03:26:49;;;;;;;12.80;3.00;;;9.50;65.00;;;;;;5053891;28;20029;-64
2022/02/24 03:29:15;;;;;;;11.32;3.42;;;9.50;64.80;;;;;;5070739;28;20048;-61
2022/02/24 03:31:42;;;;;;;12.38;3.20;;;9.50;64.80;;;;;;5071329;28;20028;-60
2022/02/24 03:34:09;;;;;;;11.30;2.63;;;9.50;64.80;;;;;;5071455;28;20051;-60
2022/02/24 03:36:34;;;;;;;10.05;3.30;;;9.50;64.70;;;;;;5071359;28;20118;-60
2022/02/24 03:39:00;;;;;;;11.70;3.70;;;9.50;64.80;;;;;;5070346;28;20038;-64
2022/02/24 03:41:26;;;;;;;11.57;3.38;;;9.50;64.80;;;;;;5070886;28;20479;-64
2022/02/24 03:43:53;;;;;;;8.88;3.53;;;9.50;64.70;;;;;;5071272;28;20051;-64
2022/02/24 03:46:20;;;;;;;10.52;2.65;;;9.50;64.50;;;;;;5052516;28;20025;-61
2022/02/24 03:48:47;;;;;;;11.43;2.75;;;9.40;64.30;;;;;;5070408;28;20033;-61
2022/02/24 03:51:13;;;;;;;10.18;2.88;;;9.50;64.40;;;;;;5070676;28;20036;-61
2022/02/24 03:53:39;;;;;;;10.48;2.60;;;9.40;64.30;;;;;;5070616;28;20250;-61
2022/02/24 03:56:04;;;;;;;8.52;3.03;;;9.40;64.50;;;;;;5070933;28;20053;-64
2022/02/24 03:58:30;;;;;;;12.75;2.72;;;9.40;64.70;;;;;;5070326;28;20033;-64
2022/02/24 04:00:56;;;;;;;14.35;3.42;;;9.40;64.70;;;;;;5070301;28;20032;-64
2022/02/24 04:03:22;;;;;;;11.57;3.33;;;9.40;64.90;;;;;;5069441;28;20044;-64
2022/02/24 04:05:48;;;;;;;10.40;3.15;;;9.40;64.80;;;;;;5070454;28;20037;-64
2022/02/24 04:08:14;;;;;;;10.27;3.80;;;9.40;64.80;;;;;;5070243;28;20103;-64
2022/02/24 04:10:40;;;;;;;13.73;3.47;;;9.40;65.00;;;;;;5069976;28;20119;-64
2022/02/24 04:13:05;;;;;;;13.93;3.28;;;9.40;65.00;;;;;;5070538;28;20080;-64
2022/02/24 04:15:31;;;;;;;10.32;3.38;;;9.40;65.10;;;;;;5070090;28;20039;-64
2022/02/24 04:17:57;;;;;;;11.70;3.28;;;9.40;65.20;;;;;;5069990;28;20024;-64
2022/02/24 04:20:23;;;;;;;10.40;2.88;;;9.40;65.20;;;;;;5069164;28;20081;-64
2022/02/24 04:22:48;;;;;;;12.05;2.75;;;9.40;65.40;;;;;;5068748;28;20056;-65
2022/02/24 04:25:15;;;;;;;9.98;2.85;;;9.30;65.30;;;;;;5069777;28;20393;-64
2022/02/24 04:27:50;;;;;;;8.00;2.50;;;9.30;65.40;;;;;;5069911;28;20039;-64
2022/02/24 04:30:18;;;;;;;12.25;3.58;;;9.30;65.50;;;;;;5069606;28;20081;-64
2022/02/24 04:32:44;;;;;;;7.70;2.63;;;9.30;65.50;;;;;;5052423;28;20475;-64
2022/02/24 04:35:11;;;;;;;10.20;2.53;;;9.30;65.50;;;;;;5052230;28;20025;-64
2022/02/24 04:37:37;;;;;;;8.45;2.65;;;9.30;65.60;;;;;;5068256;28;20037;-64
2022/02/24 04:40:05;;;;;;;8.77;3.10;;;9.30;65.50;;;;;;5085253;28;20029;-64
2022/02/24 04:42:31;;;;;;;9.90;2.85;;;9.40;65.60;;;;;;5069419;28;20082;-64
2022/02/24 04:44:57;;;;;;;10.63;2.60;;;9.30;65.60;;;;;;5051442;28;20491;-65
2022/02/24 04:47:24;;;;;;;9.18;2.47;;;9.40;65.60;;;;;;5069910;28;20043;-65
2022/02/24 04:49:50;;;;;;;8.48;3.17;;;9.40;65.80;;;;;;5067091;28;20071;-64
2022/02/24 04:52:15;;;;;;;12.00;3.30;;;9.40;66.00;;;;;;5068194;28;20093;-60
2022/02/24 04:54:41;;;;;;;17.38;3.50;;;9.40;66.20;;;;;;5062686;28;20495;-60
2022/02/24 04:57:07;;;;;;;10.48;3.60;;;9.40;66.40;;;;;;5059169;28;20025;-64
2022/02/24 04:59:32;;;;;;;13.02;3.80;;;9.40;67.40;;;;;;5054841;28;20032;-60
2022/02/24 05:01:58;;;;;;;15.70;4.03;;;9.30;67.20;;;;;;5080860;28;20039;-64
2022/02/24 05:04:24;;;;;;;11.27;4.00;;;9.30;67.50;;;;;;5050794;28;20395;-64
2022/02/24 05:06:49;;;;;;;12.02;3.72;;;9.30;67.60;;;;;;5068843;28;20021;-64
2022/02/24 05:09:16;;;;;;;12.82;3.90;;;9.30;67.70;;;;;;5050043;28;20021;-64
2022/02/24 05:11:41;;;;;;;12.48;3.92;;;9.30;67.80;;;;;;5050595;28;20453;-60
2022/02/24 05:14:07;;;;;;;8.95;3.33;;;9.30;67.90;;;;;;5068452;28;20028;-60
2022/02/24 05:16:33;;;;;;;13.52;4.10;;;9.30;68.00;;;;;;5045216;28;20037;-61
2022/02/24 05:18:59;;;;;;;12.43;3.92;;;9.20;68.00;;;;;;5057297;28;20021;-61
2022/02/24 05:21:25;;;;;;;10.75;3.35;;;9.20;68.10;;;;;;5069162;28;20120;-60
2022/02/24 05:23:51;;;;;;;15.27;3.75;;;9.20;68.00;;;;;;5069509;28;20513;-60
2022/02/24 05:26:17;;;;;;;14.57;4.18;;;9.20;68.00;;;;;;5068614;28;20508;-60
2022/02/24 05:28:43;;;;;;;10.35;2.95;;;9.20;68.10;;;;;;5067577;28;20040;-64
2022/02/24 05:31:09;;;;;;;9.52;3.20;;;9.20;68.10;;;;;;5069267;28;20526;-64
2022/02/24 05:33:35;;;;;;;10.93;3.58;;;9.20;68.10;;;;;;5068638;28;20021;-64
2022/02/24 05:36:02;;;;;;;12.82;3.60;;;9.20;68.30;;;;;;5051312;28;20110;-61
2022/02/24 05:38:28;;;;;;;9.00;3.20;;;9.20;68.50;;;;;;5068884;28;20037;-64
2022/02/24 05:40:54;;;;;;;14.73;4.05;;;9.20;68.50;;;;;;5068645;28;20028;-64
2022/02/24 05:43:19;;;;;;;10.30;3.72;;;9.20;68.60;;;;;;5051159;28;20029;-64
2022/02/24 05:45:45;;;;;;;14.98;3.80;;;9.20;68.80;;;;;;5069097;28;20132;-64
2022/02/24 05:48:12;;;;;;;11.52;3.80;;;9.20;68.80;;;;;;5068885;28;20020;-61
2022/02/24 05:50:38;;;;;;;11.35;3.42;;;9.10;68.90;;;;;;5068942;28;20016;-64
2022/02/24 05:53:04;;;;;;;10.68;2.83;;;9.10;68.90;;;;;;5069123;28;20052;-64
2022/02/24 05:55:31;;;;;;;14.43;4.13;;;9.10;69.00;;;;;;5068294;28;20529;-64
2022/02/24 05:57:56;;;;;;;10.23;3.83;;;9.10;69.10;;;;;;5068516;28;20060;-64
2022/02/24 06:00:22;;;;;;;8.30;3.22;;;9.10;69.10;;;;;;5084618;28;20072;-64
2022/02/24 06:02:48;;;;;;;10.18;3.08;;;9.20;69.20;;;;;;5068986;28;20037;-64
2022/02/24 06:05:14;;;;;;;10.38;3.30;;;9.20;69.20;;;;;;5072500;28;20039;-64
2022/02/24 06:07:42;;;;;;;10.93;3.90;;;9.20;69.30;;;;;;5072369;28;20040;-64
2022/02/24 06:10:09;;;;;;;14.50;4.03;;;9.20;69.40;;;;;;5072470;28;20108;-64
2022/02/24 06:12:35;;;;;;;12.32;3.40;;;9.20;69.30;;;;;;5072533;28;20033;-64
2022/02/24 06:15:01;;;;;;;13.82;3.72;;;9.10;69.40;;;;;;5072581;28;20093;-64
2022/02/24 06:17:26;;;;;;;14.25;4.88;;;9.10;69.60;;;;;;5072211;28;20120;-64
2022/02/24 06:19:53;;;;;;;12.63;4.00;;;9.10;69.70;;;;;;5072958;28;20028;-64
2022/02/24 06:22:18;;;;;;;12.57;3.10;;;9.10;69.70;;;;;;5067444;28;20057;-60
2022/02/24 06:24:44;;;;;;;17.08;3.72;;;9.10;69.70;;;;;;5051904;28;20189;-60
2022/02/24 06:27:09;;;;;;;10.27;3.70;;;9.10;69.80;;;;;;5051320;28;20105;-59
2022/02/24 06:29:35;;;;;;;15.15;3.60;;;9.10;69.90;;;;;;5052134;28;20025;-60
2022/02/24 06:32:01;;;;;;;14.88;4.07;;;9.10;69.90;;;;;;5051127;28;20502;-64
2022/02/24 06:34:29;;;;;;;11.15;4.05;;;9.10;69.90;;;;;;5052181;28;20025;-60
2022/02/24 06:36:54;;;;;;;9.35;3.35;;;9.20;69.90;;;;;;5052075;28;20475;-64
2022/02/24 06:39:20;;;;;;;12.32;3.72;;;9.10;69.90;;;;;;5048475;28;20029;-64
2022/02/24 06:41:46;;;;;;;13.57;3.60;;;9.10;69.90;;;;;;5039375;28;20029;-63
2022/02/24 06:44:14;;;;;;;10.23;3.58;;;9.10;69.80;;;;;;5049392;28;20368;-60
2022/02/24 06:46:40;;;;;;;13.35;4.55;;;9.10;69.90;;;;;;5050237;28;20025;-60
2022/02/24 06:49:06;;;;;;;14.98;3.53;;;9.10;70.00;;;;;;5048422;28;20060;-60
2022/02/24 06:51:31;;;;;;;14.93;4.10;;;9.10;69.90;;;;;;5045668;28;20079;-60
2022/02/24 06:53:57;;;;;;;10.57;3.28;;;9.10;69.90;;;;;;5031491;28;20433;-61
2022/02/24 06:56:23;;;;;;;10.18;3.78;;;9.10;69.90;;;;;;5047701;28;20456;-60
2022/02/24 06:58:50;;;;;;;10.88;3.50;;;9.10;70.00;;;;;;5060696;28;20400;-60
2022/02/24 07:01:17;;;;;;;9.13;2.70;;;9.10;70.10;;;;;;5032383;28;20037;-60
2022/02/24 07:03:43;;;;;;;13.45;3.40;;;9.10;70.00;;;;;;5040710;28;20437;-60
2022/02/24 07:06:09;;;;;;;12.38;3.22;;;9.10;70.10;;;;;;5040128;28;20025;-63
2022/02/24 07:08:36;;;;;;;12.23;3.05;;;9.10;70.20;;;;;;5049968;28;20025;-63
2022/02/24 07:11:05;;;;;;;11.43;3.25;;;9.00;70.20;;;;;;5034376;28;20029;-60
2022/02/24 07:13:31;;;;;;;10.00;3.00;;;9.10;70.40;;;;;;5045358;28;20068;-60
2022/02/24 07:15:56;;;;;;;9.00;2.80;;;9.10;70.50;;;;;;5049832;28;20454;-61
2022/02/24 07:18:22;;;;;;;13.48;3.40;;;9.10;70.50;;;;;;5049475;28;20426;-60
2022/02/24 07:20:48;;;;;;;14.18;3.47;;;9.10;70.60;;;;;;5051353;28;20037;-61
2022/02/24 07:23:14;;;;;;;11.88;3.15;;;9.10;70.80;;;;;;5070904;28;20087;-61
2022/02/24 07:25:40;;;;;;;8.27;2.90;;;9.10;70.80;;;;;;5068826;28;20027;-60
2022/02/24 07:28:07;;;;;;;13.20;3.03;;;9.10;70.90;;;;;;5058528;28;20024;-60
2022/02/24 07:30:35;;;;;;;10.30;2.70;;;9.10;71.20;;;;;;5064263;28;20028;-59
2022/02/24 07:33:00;;;;;;;15.85;3.40;;;9.10;71.40;;;;;;5061590;28;20034;-60
2022/02/24 07:35:26;;;;;;;6.68;2.75;;;9.10;71.40;;;;;;5061718;28;20029;-61
2022/02/24 07:37:52;;;;;;;13.23;3.25;;;9.10;71.60;;;;;;5068566;28;20060;-60
2022/02/24 07:40:17;;;;;;;11.00;3.15;;;9.10;71.70;;;;;;5062750;28;20033;-60
2022/02/24 07:42:44;;;;;;;13.68;3.95;;;9.00;71.60;;;;;;5063865;28;20025;-63
2022/02/24 07:45:10;;;;;;;9.98;2.90;;;9.10;71.80;;;;;;5062810;28;20112;-63
2022/02/24 07:47:36;;;;;;;12.07;3.53;;;9.10;72.00;;;;;;5066914;28;20055;-63
2022/02/24 07:50:03;;;;;;;10.45;2.70;;;9.10;72.30;;;;;;5063260;28;20017;-60
2022/02/24 07:52:29;;;;;;;9.13;2.70;;;9.10;72.20;;;;;;5061032;28;20043;-61
2022/02/24 07:54:55;;;;;;;8.13;2.55;;;9.00;72.10;;;;;;5064411;28;20108;-64
2022/02/24 07:57:21;;;;;;;11.13;2.55;;;9.00;72.30;;;;;;5092336;28;20024;-64
2022/02/24 07:59:47;;;;;;;10.35;2.97;;;9.10;72.30;;;;;;5069624;28;20028;-64
2022/02/24 08:02:13;;;;;;;9.15;2.55;;;9.10;72.30;;;;;;5069233;28;20029;-64
2022/02/24 08:04:39;;;;;;;10.85;3.10;;;9.10;72.20;;;;;;5069847;28;20028;-64
2022/02/24 08:07:04;;;;;;;10.63;3.20;;;9.10;72.20;;;;;;5067944;28;20086;-65
2022/02/24 08:09:30;;;;;;;8.50;3.13;;;9.10;72.20;;;;;;5033363;28;20055;-65
2022/02/24 08:14:44;;;;;;;9.40;2.20;;;9.10;71.80;;;;;;5033219;28;20893;-65
2022/02/24 08:17:10;;;;;;;8.65;2.67;;;9.10;71.90;;;;;;5032583;28;20117;-64
2022/02/24 08:19:35;;;;;;;7.78;2.28;;;9.10;71.90;;;;;;5068250;28;20537;-64
2022/02/24 08:22:02;;;;;;;9.88;2.20;;;9.10;71.90;;;;;;5055004;28;20079;-64
2022/02/24 08:24:28;;;;;;;7.78;2.50;;;9.10;71.70;;;;;;5050084;28;20040;-64
2022/02/24 08:26:54;;;;;;;9.00;2.55;;;9.10;71.60;;;;;;5053464;28;20103;-64
2022/02/24 08:29:21;;;;;;;8.63;2.20;;;9.10;71.50;;;;;;5069906;28;20503;-63
2022/02/24 08:31:46;;;;;;;8.20;2.65;;;9.20;71.50;;;;;;5069833;28;20077;-64
2022/02/24 08:34:12;;;;;;;7.80;2.45;;;9.10;71.80;;;;;;5069172;28;20499;-63
2022/02/24 08:36:38;;;;;;;8.43;2.55;;;9.10;72.10;;;;;;5035575;28;20406;-63
2022/02/24 08:39:05;;;;;;;10.27;2.85;;;9.20;72.30;;;;;;5055478;28;20044;-64
2022/02/24 08:41:35;;;;;;;7.97;2.30;;;9.20;72.50;;;;;;5062344;28;20039;-64
2022/02/24 08:44:01;;;;;;;9.18;2.70;;;9.20;72.20;;;;;;5066698;28;20025;-64
2022/02/24 08:46:27;;;;;;;9.38;2.20;;;9.20;72.10;;;;;;5066850;28;20028;-64
2022/02/24 08:48:52;;;;;;;12.93;3.17;;;9.20;72.10;;;;;;5068336;28;20060;-64
2022/02/24 08:51:18;;;;;;;11.23;2.50;;;9.30;71.80;;;;;;5069624;28;20040;-61
2022/02/24 08:53:44;;;;;;;8.63;2.45;;;9.30;71.60;;;;;;5069600;28;20043;-61
2022/02/24 08:56:10;;;;;;;6.20;2.45;;;9.40;71.50;;;;;;5061263;28;20029;-61
2022/02/24 08:58:35;;;;;;;7.22;2.70;;;9.40;70.80;;;;;;5062907;28;20029;-61
2022/02/24 09:01:01;;;;;;;12.65;2.22;;;9.40;70.50;;;;;;5057229;28;20097;-61
2022/02/24 09:03:27;;;;;;;10.73;2.60;;;9.40;70.10;;;;;;5068510;28;20020;-61
2022/02/24 09:05:53;;;;;;;9.27;2.80;;;9.40;69.90;;;;;;5052874;28;20029;-61
2022/02/24 09:08:18;;;;;;;11.65;3.17;;;9.40;69.30;;;;;;5051332;28;20107;-60
2022/02/24 09:10:44;;;;;;;7.05;2.53;;;9.40;69.50;;;;;;5067828;28;20036;-60
2022/02/24 09:13:10;;;;;;;7.85;2.72;;;9.40;69.40;;;;;;5058315;28;20029;-61
2022/02/24 09:15:36;;;;;;;9.20;2.65;;;9.40;69.30;;;;;;5048202;28;20029;-60
2022/02/24 09:18:09;;;;;;;9.35;2.80;;;9.40;69.20;;;;;;5065158;28;20374;-60
2022/02/24 09:20:35;;;;;;;12.82;2.83;;;9.40;69.30;;;;;;5062656;28;20041;-60
2022/02/24 09:23:01;;;;;;;9.00;2.45;;;9.40;69.00;;;;;;5054165;28;20486;-60
2022/02/24 09:25:27;;;;;;;11.48;2.28;;;9.40;68.60;;;;;;5084191;28;20032;-60
2022/02/24 09:27:53;;;;;;;8.68;3.08;;;9.40;68.60;;;;;;5067954;28;20379;-60
2022/02/24 09:30:19;;;;;;;11.18;2.58;;;9.30;68.80;;;;;;5067203;28;20032;-60
2022/02/24 09:32:45;;;;;;;10.32;2.20;;;9.40;68.40;;;;;;5064024;28;20090;-61
2022/02/24 09:35:14;;;;;;;7.47;2.60;;;9.50;67.80;;;;;;5069000;28;20036;-60
2022/02/24 09:37:40;;;;;;;9.57;2.65;;;9.50;67.70;;;;;;5047806;28;20029;-60
2022/02/24 09:40:09;;;;;;;8.57;2.30;;;9.50;67.40;;;;;;5069914;28;20028;-61
2022/02/24 09:42:36;;;;;;;11.85;2.22;;;9.50;67.20;;;;;;5073163;28;20029;-61
2022/02/24 09:45:03;;;;;;;8.55;2.33;;;9.40;67.20;;;;;;5072934;28;20055;-64
2022/02/24 09:47:30;;;;;;;12.75;2.65;;;9.40;67.40;;;;;;5062590;28;20025;-64
2022/02/24 09:49:59;;;;;;;6.60;2.15;;;9.40;67.50;;;;;;5060489;28;20087;-65
2022/02/24 09:52:25;;;;;;;7.03;2.50;;;9.40;67.50;;;;;;5063266;28;20033;-65
2022/02/24 09:54:51;;;;;;;11.05;2.10;;;9.40;67.50;;;;;;5061884;28;20826;-65
2022/02/24 09:57:17;;;;;;;6.25;2.00;;;9.50;67.70;;;;;;5071036;28;20111;-65
2022/02/24 09:59:43;;;;;;;11.95;2.20;;;9.50;67.40;;;;;;5051714;28;20041;-65
2022/02/24 10:02:12;;;;;;;7.47;2.22;;;9.50;67.60;;;;;;5052230;28;20041;-65
2022/02/24 10:04:58;;;;;;;8.68;2.10;;;9.60;67.40;;;;;;5060053;28;20382;-65
2022/02/24 10:07:25;;;;;;;9.95;2.50;;;9.60;67.10;;;;;;5068544;28;20144;-65
2022/02/24 10:09:51;;;;;;;6.88;2.30;;;9.70;66.60;;;;;;5069115;28;20032;-65
2022/02/24 10:12:17;;;;;;;8.40;1.98;;;9.70;66.60;;;;;;5057216;28;20471;-65
2022/02/24 10:14:43;;;;;;;12.13;2.25;;;9.80;66.70;;;;;;5066784;28;20036;-65
2022/02/24 10:17:09;;;;;;;11.95;2.22;;;9.80;66.00;;;;;;5062299;28;20485;-65
2022/02/24 10:19:43;;;;;;;9.63;2.08;;;9.80;66.90;;;;;;5047279;28;20047;-66
2022/02/24 10:22:29;;;;;;;6.90;2.28;;;9.90;66.10;;;;;;5033934;28;20136;-66
2022/02/24 10:25:01;;;;;;;9.15;1.80;;;9.90;66.30;;;;;;5052213;28;20016;-66
2022/02/24 10:27:35;;;;;;;8.27;1.75;;;10.00;66.50;;;;;;5060998;28;20029;-66
2022/02/24 10:30:18;;;;;;;8.50;2.00;;;10.10;66.10;;;;;;5056424;28;20012;-65
2022/02/24 10:32:50;;;;;;;12.10;3.15;;;10.20;65.10;;;;;;5060444;28;20086;-65
2022/02/24 10:35:18;;;;;;;11.20;2.20;;;10.20;65.20;;;;;;5059737;28;20025;-65
2022/02/24 10:37:50;;;;;;;7.88;1.98;;;10.30;65.20;;;;;;5064652;28;20040;-65
2022/02/24 10:40:19;;;;;;;10.43;2.10;;;10.40;65.00;;;;;;5065312;28;20021;-65
2022/02/24 10:42:45;;;;;;;11.75;2.15;;;10.40;64.60;;;;;;5060132;28;20085;-64
2022/02/24 10:45:16;;;;;;;10.40;2.53;;;10.50;64.30;;;;;;5069613;28;20048;-65
2022/02/24 10:48:04;;;;;;;7.93;2.20;;;10.70;64.20;;;;;;5067615;28;20425;-65
2022/02/24 10:50:50;;;;;;;11.35;2.25;;;10.80;64.20;;;;;;5043473;28;20028;-65
2022/02/24 10:53:19;;;;;;;8.25;2.20;;;11.00;62.80;;;;;;5051319;28;20029;-65
2022/02/24 10:56:05;;;;;;;9.60;2.10;;;11.10;62.50;;;;;;5051819;28;20079;-65
2022/02/24 10:58:40;;;;;;;6.78;1.73;;;11.20;62.80;;;;;;5057106;28;20037;-65
2022/02/24 11:01:09;;;;;;;8.07;1.90;;;11.20;62.70;;;;;;5065381;28;20445;-66
2022/02/24 11:03:36;;;;;;;8.63;2.55;;;11.30;62.50;;;;;;5069161;28;20067;-66
2022/02/24 11:06:04;;;;;;;6.68;1.88;;;11.40;61.70;;;;;;5061363;28;20033;-66
2022/02/24 11:08:31;;;;;;;5.75;1.80;;;11.50;61.70;;;;;;5065874;28;20028;-66
2022/02/24 11:10:59;;;;;;;10.18;2.30;;;11.50;61.60;;;;;;5058269;28;20035;-60
2022/02/24 11:13:28;;;;;;;8.10;2.13;;;11.60;61.30;;;;;;5050830;28;20430;-61
2022/02/24 11:15:58;;;;;;;7.47;2.25;;;11.70;61.60;;;;;;5033228;28;20124;-61
2022/02/24 11:18:25;;;;;;;8.02;1.92;;;11.80;61.30;;;;;;5050181;28;20036;-61
2022/02/24 11:20:51;;;;;;;5.38;1.80;;;11.90;60.10;;;;;;5056198;28;20029;-61
2022/02/24 11:23:18;;;;;;;7.05;1.80;;;12.00;60.30;;;;;;5064419;28;20328;-65
2022/02/24 11:26:01;;;;;;;9.07;2.45;;;12.10;60.50;;;;;;5065196;28;20366;-65
2022/02/24 11:29:10;;;;;;;7.10;2.25;;;12.30;60.10;;;;;;5056905;28;20097;-61
2022/02/24 11:31:47;;;;;;;7.43;1.70;;;12.50;59.70;;;;;;5056314;28;20552;-61
2022/02/24 11:34:13;;;;;;;5.25;1.50;;;12.60;59.30;;;;;;5062429;28;20110;-61
2022/02/24 11:36:41;;;;;;;5.45;1.52;;;12.70;58.50;;;;;;5054160;28;20044;-61
2022/02/24 11:39:13;;;;;;;7.82;1.92;;;12.80;57.10;;;;;;5061651;28;20484;-61
2022/02/24 11:41:48;;;;;;;7.53;1.80;;;12.80;56.60;;;;;;5062680;28;20032;-61
2022/02/24 11:44:40;;;;;;;5.97;1.77;;;12.70;56.40;;;;;;5069075;28;20151;-61
2022/02/24 11:47:10;;;;;;;5.68;1.63;;;12.60;57.00;;;;;;5061317;28;20012;-61
2022/02/24 11:49:55;;;;;;;6.22;1.50;;;12.50;56.70;;;;;;5061179;28;20024;-65
2022/02/24 11:52:25;;;;;;;4.95;1.50;;;12.40;57.30;;;;;;5057123;28;20078;-66
2022/02/24 11:54:52;;;;;;;7.65;1.80;;;12.20;57.30;;;;;;5060153;28;20544;-65
2022/02/24 11:57:32;;;;;;;6.85;1.77;;;12.20;58.00;;;;;;5068001;28;20028;-65
2022/02/24 12:00:18;;;;;;;6.18;1.58;;;12.10;58.70;;;;;;5068643;28;20055;-65
2022/02/24 12:02:45;;;;;;;5.53;1.38;;;12.10;58.60;;;;;;5040327;28;20049;-60
2022/02/24 12:05:24;;;;;;;7.75;1.73;;;11.90;58.80;;;;;;5050215;28;20071;-60
2022/02/24 12:08:01;;;;;;;5.93;1.52;;;11.90;59.00;;;;;;5054860;28;20078;-61
2022/02/24 12:10:41;;;;;;;6.15;1.75;;;11.90;59.20;;;;;;5059209;28;20028;-60
2022/02/24 12:13:25;;;;;;;8.00;2.17;;;11.90;59.40;;;;;;5049767;28;20418;-62
2022/02/24 12:16:19;;;;;;;5.72;1.90;;;11.90;59.20;;;;;;5065694;28;20127;-60
2022/02/24 12:18:45;;;;;;;5.40;1.40;;;12.00;59.40;;;;;;5058727;28;20028;-59
2022/02/24 12:21:35;;;;;;;6.18;1.25;;;12.10;59.40;;;;;;5054162;28;20040;-60
2022/02/24 12:24:10;;;;;;;7.30;1.45;;;12.20;59.20;;;;;;5031734;28;20037;-60
2022/02/24 12:26:46;;;;;;;5.70;1.65;;;12.30;58.10;;;;;;5056747;28;20017;-60
2022/02/24 12:29:19;;;;;;;7.60;1.30;;;12.40;58.00;;;;;;5062821;28;20032;-60
2022/02/24 12:31:46;;;;;;;8.48;1.80;;;12.60;57.00;;;;;;5049640;28;20037;-60
2022/02/24 12:34:17;;;;;;;2.88;1.27;;;12.70;56.70;;;;;;5065495;28;20028;-61
2022/02/24 12:36:43;;;;;;;5.88;1.67;;;12.70;57.00;;;;;;5068083;28;20051;-62
2022/02/24 12:39:09;;;;;;;6.85;1.52;;;12.70;57.10;;;;;;5060268;28;20033;-61
2022/02/24 12:41:34;;;;;;;6.68;1.40;;;12.70;57.10;;;;;;5065861;28;20075;-61
2022/02/24 12:44:00;;;;;;;5.20;1.20;;;12.70;57.70;;;;;;5060972;28;20044;-61
2022/02/24 12:46:27;;;;;;;4.75;1.80;;;12.60;57.70;;;;;;5049307;28;20029;-66
2022/02/24 12:48:55;;;;;;;6.00;1.60;;;12.50;57.80;;;;;;5057553;28;20036;-66
2022/02/24 12:51:24;;;;;;;7.38;1.50;;;12.50;58.30;;;;;;5050662;28;20033;-66
2022/02/24 12:53:50;;;;;;;3.67;1.30;;;12.50;58.50;;;;;;5051178;28;20036;-66